Back to Top

Language: 

My Weather Underground Personal Weather Station Historical Data with Graphs...

Delerius Weather Station Historical Data
Daily Summary for March 16, 2017 Units:  Both    English   Metric
« Previous Day
Next Day »
Daily Weekly Monthly Yearly Custom
  High: Low: Average:
Temperature: 55.2 °F /  12.9 °C 39.7 °F /  4.3 °C 48.5 °F /  9.2 °C
Dew Point: 46.0 °F /  7.8 °C 35.6 °F /  2 °C 42.5 °F /  5.8 °C
Humidity: 92 % 68 % 80 %
Wind Speed: 16.0 mph /  25.7 km/h - 6.4 mph /  10.3 km/h
Wind Gust: 29.0 mph /  46.7 km/h - -
Wind:- - West
Pressure: 30.29 in /  1025.6 hPa 29.98 in /  1015.1 hPa -
Precipitation: 0.00 in /  0 mm    
Historical Graphs
 
 
Tabular Data for March 16, 2017
Time Temperature Dew Point Pressure Wind Wind Speed Wind Gust Humidity Rainfall Rate (Hourly) solar Conditions
00:04 49.1 °F /  9.5 °C 43.5 °F /  6.4 °C 30.29 in /  1025.6 hPa South 1.0 mph /  1.6 km/h 6.0 mph /  9.7 km/h 81 % 0.00 in /  0 mm 0 W/m2
00:09 49.1 °F /  9.5 °C 43.8 °F /  6.6 °C 30.29 in /  1025.6 hPa SSW 1.0 mph /  1.6 km/h 6.0 mph /  9.7 km/h 82 % 0.00 in /  0 mm 0 W/m2
00:14 48.7 °F /  9.3 °C 43.5 °F /  6.4 °C 30.29 in /  1025.6 hPa SSW 1.0 mph /  1.6 km/h 7.0 mph /  11.3 km/h 82 % 0.00 in /  0 mm 0 W/m2
00:19 48.7 °F /  9.3 °C 43.8 °F /  6.6 °C 30.29 in /  1025.6 hPa SW 3.0 mph /  4.8 km/h 9.0 mph /  14.5 km/h 83 % 0.00 in /  0 mm 0 W/m2
00:24 49.1 °F /  9.5 °C 44.2 °F /  6.8 °C 30.28 in /  1025.3 hPa SW 5.0 mph /  8 km/h 11.0 mph /  17.7 km/h 83 % 0.00 in /  0 mm 0 W/m2
00:29 49.6 °F /  9.8 °C 44.4 °F /  6.9 °C 30.28 in /  1025.3 hPa WSW 6.0 mph /  9.7 km/h 12.0 mph /  19.3 km/h 82 % 0.00 in /  0 mm 0 W/m2
00:34 50.2 °F /  10.1 °C 44.6 °F /  7 °C 30.28 in /  1025.3 hPa WSW 7.0 mph /  11.3 km/h 12.0 mph /  19.3 km/h 81 % 0.00 in /  0 mm 0 W/m2
00:39 50.4 °F /  10.2 °C 44.7 °F /  7.1 °C 30.28 in /  1025.3 hPa WSW 6.0 mph /  9.7 km/h 11.0 mph /  17.7 km/h 81 % 0.00 in /  0 mm 0 W/m2
00:44 50.4 °F /  10.2 °C 44.4 °F /  6.9 °C 30.28 in /  1025.3 hPa WSW 5.0 mph /  8 km/h 9.0 mph /  14.5 km/h 80 % 0.00 in /  0 mm 0 W/m2
00:49 50.2 °F /  10.1 °C 44.2 °F /  6.8 °C 30.28 in /  1025.3 hPa WSW 4.0 mph /  6.4 km/h 8.0 mph /  12.9 km/h 80 % 0.00 in /  0 mm 0 W/m2
00:54 49.8 °F /  9.9 °C 43.9 °F /  6.6 °C 30.27 in /  1024.9 hPa WSW 4.0 mph /  6.4 km/h 8.0 mph /  12.9 km/h 80 % 0.00 in /  0 mm 0 W/m2
00:59 49.6 °F /  9.8 °C 44.0 °F /  6.7 °C 30.27 in /  1024.9 hPa WSW 3.0 mph /  4.8 km/h 8.0 mph /  12.9 km/h 81 % 0.00 in /  0 mm 0 W/m2
01:04 49.5 °F /  9.7 °C 43.9 °F /  6.6 °C 30.27 in /  1024.9 hPa WSW 2.0 mph /  3.2 km/h 8.0 mph /  12.9 km/h 81 % 0.00 in /  0 mm 0 W/m2
01:09 49.3 °F /  9.6 °C 43.7 °F /  6.5 °C 30.27 in /  1024.9 hPa WSW 1.0 mph /  1.6 km/h 5.0 mph /  8 km/h 81 % 0.00 in /  0 mm 0 W/m2
01:14 48.7 °F /  9.3 °C 43.2 °F /  6.2 °C 30.27 in /  1024.9 hPa West 2.0 mph /  3.2 km/h 6.0 mph /  9.7 km/h 81 % 0.00 in /  0 mm 0 W/m2
01:19 48.6 °F /  9.2 °C 43.3 °F /  6.3 °C 30.27 in /  1024.9 hPa West 3.0 mph /  4.8 km/h 6.0 mph /  9.7 km/h 82 % 0.00 in /  0 mm 0 W/m2
01:24 48.4 °F /  9.1 °C 43.1 °F /  6.2 °C 30.26 in /  1024.6 hPa West 1.0 mph /  1.6 km/h 5.0 mph /  8 km/h 82 % 0.00 in /  0 mm 0 W/m2
01:29 48.0 °F /  8.9 °C 42.8 °F /  6 °C 30.26 in /  1024.6 hPa Calm   4.0 mph /  6.4 km/h 82 % 0.00 in /  0 mm 0 W/m2
01:34 47.8 °F /  8.8 °C 42.6 °F /  5.9 °C 30.26 in /  1024.6 hPa Calm   4.0 mph /  6.4 km/h 82 % 0.00 in /  0 mm 0 W/m2
01:39 47.8 °F /  8.8 °C 42.9 °F /  6.1 °C 30.26 in /  1024.6 hPa Calm   5.0 mph /  8 km/h 83 % 0.00 in /  0 mm 0 W/m2
01:44 47.8 °F /  8.8 °C 42.9 °F /  6.1 °C 30.26 in /  1024.6 hPa Calm   5.0 mph /  8 km/h 83 % 0.00 in /  0 mm 0 W/m2
01:49 47.7 °F /  8.7 °C 42.8 °F /  6 °C 30.26 in /  1024.6 hPa Calm   2.0 mph /  3.2 km/h 83 % 0.00 in /  0 mm 0 W/m2
01:54 47.7 °F /  8.7 °C 42.8 °F /  6 °C 30.25 in /  1024.3 hPa Calm   2.0 mph /  3.2 km/h 83 % 0.00 in /  0 mm 0 W/m2
01:59 47.7 °F /  8.7 °C 42.8 °F /  6 °C 30.25 in /  1024.3 hPa West 1.0 mph /  1.6 km/h 5.0 mph /  8 km/h 83 % 0.00 in /  0 mm 0 W/m2
02:04 47.8 °F /  8.8 °C 42.9 °F /  6.1 °C 30.25 in /  1024.3 hPa West 1.0 mph /  1.6 km/h 5.0 mph /  8 km/h 83 % 0.00 in /  0 mm 0 W/m2
02:09 47.8 °F /  8.8 °C 42.9 °F /  6.1 °C 30.25 in /  1024.3 hPa Calm   2.0 mph /  3.2 km/h 83 % 0.00 in /  0 mm 0 W/m2
02:14 47.8 °F /  8.8 °C 42.9 °F /  6.1 °C 30.24 in /  1023.9 hPa Calm   2.0 mph /  3.2 km/h 83 % 0.00 in /  0 mm 0 W/m2
02:19 47.8 °F /  8.8 °C 42.9 °F /  6.1 °C 30.24 in /  1023.9 hPa West 1.0 mph /  1.6 km/h 4.0 mph /  6.4 km/h 83 % 0.00 in /  0 mm 0 W/m2
02:24 47.8 °F /  8.8 °C 42.9 °F /  6.1 °C 30.24 in /  1023.9 hPa West 1.0 mph /  1.6 km/h 4.0 mph /  6.4 km/h 83 % 0.00 in /  0 mm 0 W/m2
02:29 47.8 °F /  8.8 °C 42.9 °F /  6.1 °C 30.24 in /  1023.9 hPa West 2.0 mph /  3.2 km/h 6.0 mph /  9.7 km/h 83 % 0.00 in /  0 mm 0 W/m2
02:34 48.0 °F /  8.9 °C 43.1 °F /  6.2 °C 30.23 in /  1023.6 hPa WNW 4.0 mph /  6.4 km/h 6.0 mph /  9.7 km/h 83 % 0.00 in /  0 mm 0 W/m2
02:39 48.4 °F /  9.1 °C 43.5 °F /  6.4 °C 30.23 in /  1023.6 hPa NW 3.0 mph /  4.8 km/h 6.0 mph /  9.7 km/h 83 % 0.00 in /  0 mm 0 W/m2
02:44 48.4 °F /  9.1 °C 43.1 °F /  6.2 °C 30.23 in /  1023.6 hPa NW 3.0 mph /  4.8 km/h 6.0 mph /  9.7 km/h 82 % 0.00 in /  0 mm 0 W/m2
02:49 48.4 °F /  9.1 °C 42.8 °F /  6 °C 30.23 in /  1023.6 hPa NW 3.0 mph /  4.8 km/h 7.0 mph /  11.3 km/h 81 % 0.00 in /  0 mm 0 W/m2
02:54 48.0 °F /  8.9 °C 42.5 °F /  5.8 °C 30.23 in /  1023.6 hPa WNW 2.0 mph /  3.2 km/h 7.0 mph /  11.3 km/h 81 % 0.00 in /  0 mm 0 W/m2
02:59 48.0 °F /  8.9 °C 42.5 °F /  5.8 °C 30.22 in /  1023.2 hPa WNW 1.0 mph /  1.6 km/h 6.0 mph /  9.7 km/h 81 % 0.00 in /  0 mm 0 W/m2
03:04 47.7 °F /  8.7 °C 42.4 °F /  5.8 °C 30.22 in /  1023.2 hPa Calm   2.0 mph /  3.2 km/h 82 % 0.00 in /  0 mm 0 W/m2
03:09 47.5 °F /  8.6 °C 42.3 °F /  5.7 °C 30.22 in /  1023.2 hPa Calm   2.0 mph /  3.2 km/h 82 % 0.00 in /  0 mm 0 W/m2
03:14 47.1 °F /  8.4 °C 41.9 °F /  5.5 °C 30.22 in /  1023.2 hPa Calm   1.0 mph /  1.6 km/h 82 % 0.00 in /  0 mm 0 W/m2
03:19 46.8 °F /  8.2 °C 41.9 °F /  5.5 °C 30.22 in /  1023.2 hPa Calm   2.0 mph /  3.2 km/h 83 % 0.00 in /  0 mm 0 W/m2
03:24 46.6 °F /  8.1 °C 41.7 °F /  5.4 °C 30.22 in /  1023.2 hPa Calm   2.0 mph /  3.2 km/h 83 % 0.00 in /  0 mm 0 W/m2
03:30 46.2 °F /  7.9 °C 42.0 °F /  5.6 °C 30.22 in /  1023.2 hPa WNW 1.0 mph /  1.6 km/h 5.0 mph /  8 km/h 85 % 0.00 in /  0 mm 0 W/m2
03:35 46.4 °F /  8 °C 42.1 °F /  5.6 °C 30.21 in /  1022.9 hPa WNW 2.0 mph /  3.2 km/h 5.0 mph /  8 km/h 85 % 0.00 in /  0 mm 0 W/m2
03:40 46.4 °F /  8 °C 42.1 °F /  5.6 °C 30.21 in /  1022.9 hPa WNW 1.0 mph /  1.6 km/h 5.0 mph /  8 km/h 85 % 0.00 in /  0 mm 0 W/m2
03:45 46.2 °F /  7.9 °C 42.0 °F /  5.6 °C 30.21 in /  1022.9 hPa WNW 1.0 mph /  1.6 km/h 4.0 mph /  6.4 km/h 85 % 0.00 in /  0 mm 0 W/m2
03:50 46.2 °F /  7.9 °C 42.0 °F /  5.6 °C 30.21 in /  1022.9 hPa WNW 1.0 mph /  1.6 km/h 4.0 mph /  6.4 km/h 85 % 0.00 in /  0 mm 0 W/m2
03:55 46.0 °F /  7.8 °C 41.8 °F /  5.4 °C 30.21 in /  1022.9 hPa WNW 1.0 mph /  1.6 km/h 4.0 mph /  6.4 km/h 85 % 0.00 in /  0 mm 0 W/m2
04:00 45.9 °F /  7.7 °C 41.9 °F /  5.5 °C 30.20 in /  1022.6 hPa Calm   3.0 mph /  4.8 km/h 86 % 0.00 in /  0 mm 0 W/m2
04:05 45.7 °F /  7.6 °C 41.4 °F /  5.2 °C 30.20 in /  1022.6 hPa Calm   2.0 mph /  3.2 km/h 85 % 0.00 in /  0 mm 0 W/m2
04:10 45.5 °F /  7.5 °C 41.6 °F /  5.3 °C 30.20 in /  1022.6 hPa Calm   3.0 mph /  4.8 km/h 86 % 0.00 in /  0 mm 0 W/m2
04:15 45.5 °F /  7.5 °C 41.6 °F /  5.3 °C 30.20 in /  1022.6 hPa Calm   3.0 mph /  4.8 km/h 86 % 0.00 in /  0 mm 0 W/m2
04:20 45.3 °F /  7.4 °C 41.4 °F /  5.2 °C 30.19 in /  1022.2 hPa Calm   1.0 mph /  1.6 km/h 86 % 0.00 in /  0 mm 0 W/m2
04:25 45.1 °F /  7.3 °C 41.5 °F /  5.3 °C 30.19 in /  1022.2 hPa Calm   1.0 mph /  1.6 km/h 87 % 0.00 in /  0 mm 0 W/m2
04:30 45.1 °F /  7.3 °C 41.5 °F /  5.3 °C 30.19 in /  1022.2 hPa Calm   4.0 mph /  6.4 km/h 87 % 0.00 in /  0 mm 0 W/m2
04:35 45.1 °F /  7.3 °C 41.5 °F /  5.3 °C 30.19 in /  1022.2 hPa NW 2.0 mph /  3.2 km/h 5.0 mph /  8 km/h 87 % 0.00 in /  0 mm 0 W/m2
04:40 45.3 °F /  7.4 °C 41.7 °F /  5.4 °C 30.19 in /  1022.2 hPa NW 3.0 mph /  4.8 km/h 5.0 mph /  8 km/h 87 % 0.00 in /  0 mm 0 W/m2
04:45 45.3 °F /  7.4 °C 41.7 °F /  5.4 °C 30.19 in /  1022.2 hPa NW 3.0 mph /  4.8 km/h 5.0 mph /  8 km/h 87 % 0.00 in /  0 mm 0 W/m2
04:50 45.3 °F /  7.4 °C 41.7 °F /  5.4 °C 30.19 in /  1022.2 hPa NW 2.0 mph /  3.2 km/h 5.0 mph /  8 km/h 87 % 0.00 in /  0 mm 0 W/m2
04:55 45.1 °F /  7.3 °C 41.5 °F /  5.3 °C 30.19 in /  1022.2 hPa NW 1.0 mph /  1.6 km/h 4.0 mph /  6.4 km/h 87 % 0.00 in /  0 mm 0 W/m2
05:00 45.1 °F /  7.3 °C 41.5 °F /  5.3 °C 30.19 in /  1022.2 hPa Calm   3.0 mph /  4.8 km/h 87 % 0.00 in /  0 mm 0 W/m2
05:05 45.0 °F /  7.2 °C 41.3 °F /  5.2 °C 30.19 in /  1022.2 hPa Calm   3.0 mph /  4.8 km/h 87 % 0.00 in /  0 mm 0 W/m2
05:10 44.8 °F /  7.1 °C 41.4 °F /  5.2 °C 30.19 in /  1022.2 hPa Calm   3.0 mph /  4.8 km/h 88 % 0.00 in /  0 mm 0 W/m2
05:15 44.4 °F /  6.9 °C 40.8 °F /  4.9 °C 30.18 in /  1021.9 hPa Calm   3.0 mph /  4.8 km/h 87 % 0.00 in /  0 mm 0 W/m2
05:20 44.1 °F /  6.7 °C 40.4 °F /  4.7 °C 30.18 in /  1021.9 hPa Calm   1.0 mph /  1.6 km/h 87 % 0.00 in /  0 mm 0 W/m2
05:25 43.9 °F /  6.6 °C 40.3 °F /  4.6 °C 30.18 in /  1021.9 hPa Calm   1.0 mph /  1.6 km/h 87 % 0.00 in /  0 mm 0 W/m2
05:30 43.5 °F /  6.4 °C 40.2 °F /  4.6 °C 30.18 in /  1021.9 hPa Calm   1.0 mph /  1.6 km/h 88 % 0.00 in /  0 mm 0 W/m2
05:35 43.3 °F /  6.3 °C 40.0 °F /  4.4 °C 30.17 in /  1021.6 hPa Calm   1.0 mph /  1.6 km/h 88 % 0.00 in /  0 mm 0 W/m2
05:40 43.2 °F /  6.2 °C 40.1 °F /  4.5 °C 30.17 in /  1021.6 hPa Calm     89 % 0.00 in /  0 mm 0 W/m2
05:45 43.0 °F /  6.1 °C 40.0 °F /  4.4 °C 30.17 in /  1021.6 hPa Calm     89 % 0.00 in /  0 mm 0 W/m2
05:50 42.6 °F /  5.9 °C 39.6 °F /  4.2 °C 30.17 in /  1021.6 hPa Calm   3.0 mph /  4.8 km/h 89 % 0.00 in /  0 mm 0 W/m2
05:55 42.4 °F /  5.8 °C 39.7 °F /  4.3 °C 30.17 in /  1021.6 hPa Calm   3.0 mph /  4.8 km/h 90 % 0.00 in /  0 mm 0 W/m2
06:00 42.4 °F /  5.8 °C 39.7 °F /  4.3 °C 30.17 in /  1021.6 hPa Calm   2.0 mph /  3.2 km/h 90 % 0.00 in /  0 mm 0 W/m2
06:05 42.4 °F /  5.8 °C 39.7 °F /  4.3 °C 30.16 in /  1021.2 hPa Calm   2.0 mph /  3.2 km/h 90 % 0.00 in /  0 mm 0 W/m2
06:10 42.3 °F /  5.7 °C 39.5 °F /  4.2 °C 30.16 in /  1021.2 hPa Calm     90 % 0.00 in /  0 mm 0 W/m2
06:15 42.1 °F /  5.6 °C 39.4 °F /  4.1 °C 30.16 in /  1021.2 hPa Calm     90 % 0.00 in /  0 mm 0 W/m2
06:20 42.1 °F /  5.6 °C 39.6 °F /  4.2 °C 30.15 in /  1020.9 hPa NW 1.0 mph /  1.6 km/h 2.0 mph /  3.2 km/h 91 % 0.00 in /  0 mm 5 W/m2
06:25 42.3 °F /  5.7 °C 40.1 °F /  4.5 °C 30.15 in /  1020.9 hPa NW 1.0 mph /  1.6 km/h 5.0 mph /  8 km/h 92 % 0.00 in /  0 mm 7 W/m2
06:30 42.3 °F /  5.7 °C 40.1 °F /  4.5 °C 30.16 in /  1021.2 hPa NW 2.0 mph /  3.2 km/h 5.0 mph /  8 km/h 92 % 0.00 in /  0 mm 9 W/m2
06:35 42.3 °F /  5.7 °C 39.8 °F /  4.3 °C 30.16 in /  1021.2 hPa NW 1.0 mph /  1.6 km/h 5.0 mph /  8 km/h 91 % 0.00 in /  0 mm 11 W/m2
06:40 42.3 °F /  5.7 °C 39.8 °F /  4.3 °C 30.16 in /  1021.2 hPa Calm   1.0 mph /  1.6 km/h 91 % 0.00 in /  0 mm 14 W/m2
06:45 42.1 °F /  5.6 °C 39.6 °F /  4.2 °C 30.15 in /  1020.9 hPa Calm   1.0 mph /  1.6 km/h 91 % 0.00 in /  0 mm 14 W/m2
06:50 41.7 °F /  5.4 °C 39.3 °F /  4.1 °C 30.15 in /  1020.9 hPa Calm     91 % 0.00 in /  0 mm 18 W/m2
06:55 41.5 °F /  5.3 °C 39.1 °F /  3.9 °C 30.15 in /  1020.9 hPa Calm   1.0 mph /  1.6 km/h 91 % 0.00 in /  0 mm 19 W/m2
07:00 41.5 °F /  5.3 °C 39.1 °F /  3.9 °C 30.16 in /  1021.2 hPa NW 1.0 mph /  1.6 km/h 4.0 mph /  6.4 km/h 91 % 0.00 in /  0 mm 60 W/m2
07:05 41.7 °F /  5.4 °C 39.6 °F /  4.2 °C 30.16 in /  1021.2 hPa NW 1.0 mph /  1.6 km/h 4.0 mph /  6.4 km/h 92 % 0.00 in /  0 mm 90 W/m2
07:10 42.1 °F /  5.6 °C 39.9 °F /  4.4 °C 30.15 in /  1020.9 hPa Calm   4.0 mph /  6.4 km/h 92 % 0.00 in /  0 mm 98 W/m2
07:15 42.4 °F /  5.8 °C 40.3 °F /  4.6 °C 30.16 in /  1021.2 hPa Calm     92 % 0.00 in /  0 mm 114 W/m2
07:20 42.8 °F /  6 °C 40.6 °F /  4.8 °C 30.15 in /  1020.9 hPa Calm     92 % 0.00 in /  0 mm 121 W/m2
07:25 43.2 °F /  6.2 °C 41.0 °F /  5 °C 30.15 in /  1020.9 hPa Calm     92 % 0.00 in /  0 mm 90 W/m2
07:30 43.5 °F /  6.4 °C 41.1 °F /  5.1 °C 30.15 in /  1020.9 hPa Calm     91 % 0.00 in /  0 mm 95 W/m2
07:35 43.9 °F /  6.6 °C 41.4 °F /  5.2 °C 30.15 in /  1020.9 hPa Calm     91 % 0.00 in /  0 mm 162 W/m2
07:40 44.4 °F /  6.9 °C 41.7 °F /  5.4 °C 30.15 in /  1020.9 hPa WNW 1.0 mph /  1.6 km/h 6.0 mph /  9.7 km/h 90 % 0.00 in /  0 mm 181 W/m2
07:45 45.1 °F /  7.3 °C 42.4 °F /  5.8 °C 30.15 in /  1020.9 hPa WNW 2.0 mph /  3.2 km/h 6.0 mph /  9.7 km/h 90 % 0.00 in /  0 mm 183 W/m2
07:50 46.0 °F /  7.8 °C 43.3 °F /  6.3 °C 30.15 in /  1020.9 hPa WNW 2.0 mph /  3.2 km/h 9.0 mph /  14.5 km/h 90 % 0.00 in /  0 mm 206 W/m2
07:55 47.1 °F /  8.4 °C 43.7 °F /  6.5 °C 30.15 in /  1020.9 hPa NW 4.0 mph /  6.4 km/h 9.0 mph /  14.5 km/h 88 % 0.00 in /  0 mm 225 W/m2
08:00 47.8 °F /  8.8 °C 43.5 °F /  6.4 °C 30.15 in /  1020.9 hPa NW 6.0 mph /  9.7 km/h 11.0 mph /  17.7 km/h 85 % 0.00 in /  0 mm 227 W/m2
08:05 48.6 °F /  9.2 °C 43.9 °F /  6.6 °C 30.15 in /  1020.9 hPa NW 6.0 mph /  9.7 km/h 11.0 mph /  17.7 km/h 84 % 0.00 in /  0 mm 221 W/m2
08:10 48.9 °F /  9.4 °C 44.0 °F /  6.7 °C 30.15 in /  1020.9 hPa NW 5.0 mph /  8 km/h 8.0 mph /  12.9 km/h 83 % 0.00 in /  0 mm 239 W/m2
08:15 49.5 °F /  9.7 °C 44.2 °F /  6.8 °C 30.14 in /  1020.5 hPa NW 3.0 mph /  4.8 km/h 9.0 mph /  14.5 km/h 82 % 0.00 in /  0 mm 174 W/m2
08:20 49.5 °F /  9.7 °C 43.5 °F /  6.4 °C 30.14 in /  1020.5 hPa WNW 5.0 mph /  8 km/h 12.0 mph /  19.3 km/h 80 % 0.00 in /  0 mm 127 W/m2
08:25 49.5 °F /  9.7 °C 43.9 °F /  6.6 °C 30.14 in /  1020.5 hPa WNW 7.0 mph /  11.3 km/h 13.0 mph /  20.9 km/h 81 % 0.00 in /  0 mm 236 W/m2
08:31 49.6 °F /  9.8 °C 44.0 °F /  6.7 °C 30.14 in /  1020.5 hPa WNW 8.0 mph /  12.9 km/h 13.0 mph /  20.9 km/h 81 % 0.00 in /  0 mm 309 W/m2
08:36 50.0 °F /  10 °C 44.4 °F /  6.9 °C 30.14 in /  1020.5 hPa WNW 8.0 mph /  12.9 km/h 13.0 mph /  20.9 km/h 81 % 0.00 in /  0 mm 315 W/m2
08:41 50.2 °F /  10.1 °C 44.2 °F /  6.8 °C 30.14 in /  1020.5 hPa WNW 9.0 mph /  14.5 km/h 15.0 mph /  24.1 km/h 80 % 0.00 in /  0 mm 120 W/m2
08:46 50.0 °F /  10 °C 44.1 °F /  6.7 °C 30.14 in /  1020.5 hPa WNW 9.0 mph /  14.5 km/h 16.0 mph /  25.7 km/h 80 % 0.00 in /  0 mm 302 W/m2
08:51 49.8 °F /  9.9 °C 43.9 °F /  6.6 °C 30.14 in /  1020.5 hPa WNW 9.0 mph /  14.5 km/h 16.0 mph /  25.7 km/h 80 % 0.00 in /  0 mm 308 W/m2
08:56 49.8 °F /  9.9 °C 43.9 °F /  6.6 °C 30.13 in /  1020.2 hPa WNW 8.0 mph /  12.9 km/h 14.0 mph /  22.5 km/h 80 % 0.00 in /  0 mm 114 W/m2
09:01 49.6 °F /  9.8 °C 44.0 °F /  6.7 °C 30.13 in /  1020.2 hPa West 6.0 mph /  9.7 km/h 13.0 mph /  20.9 km/h 81 % 0.00 in /  0 mm 134 W/m2
09:06 50.0 °F /  10 °C 44.4 °F /  6.9 °C 30.13 in /  1020.2 hPa WNW 5.0 mph /  8 km/h 10.0 mph /  16.1 km/h 81 % 0.00 in /  0 mm 413 W/m2
09:11 50.4 °F /  10.2 °C 44.4 °F /  6.9 °C 30.13 in /  1020.2 hPa WNW 6.0 mph /  9.7 km/h 10.0 mph /  16.1 km/h 80 % 0.00 in /  0 mm 318 W/m2
09:16 50.7 °F /  10.4 °C 44.8 °F /  7.1 °C 30.12 in /  1019.9 hPa WNW 6.0 mph /  9.7 km/h 10.0 mph /  16.1 km/h 80 % 0.00 in /  0 mm 427 W/m2
09:21 51.1 °F /  10.6 °C 44.8 °F /  7.1 °C 30.12 in /  1019.9 hPa WNW 4.0 mph /  6.4 km/h 9.0 mph /  14.5 km/h 79 % 0.00 in /  0 mm 459 W/m2
09:26 51.6 °F /  10.9 °C 44.6 °F /  7 °C 30.12 in /  1019.9 hPa West 3.0 mph /  4.8 km/h 8.0 mph /  12.9 km/h 77 % 0.00 in /  0 mm 459 W/m2
09:31 51.6 °F /  10.9 °C 44.0 °F /  6.7 °C 30.12 in /  1019.9 hPa WSW 5.0 mph /  8 km/h 11.0 mph /  17.7 km/h 75 % 0.00 in /  0 mm 418 W/m2
09:36 51.6 °F /  10.9 °C 44.0 °F /  6.7 °C 30.12 in /  1019.9 hPa SW 8.0 mph /  12.9 km/h 14.0 mph /  22.5 km/h 75 % 0.00 in /  0 mm 431 W/m2
09:41 51.6 °F /  10.9 °C 44.0 °F /  6.7 °C 30.12 in /  1019.9 hPa WSW 8.0 mph /  12.9 km/h 14.0 mph /  22.5 km/h 75 % 0.00 in /  0 mm 455 W/m2
09:46 52.2 °F /  11.2 °C 44.5 °F /  6.9 °C 30.11 in /  1019.5 hPa West 7.0 mph /  11.3 km/h 11.0 mph /  17.7 km/h 75 % 0.00 in /  0 mm 468 W/m2
09:51 52.5 °F /  11.4 °C 44.5 °F /  6.9 °C 30.11 in /  1019.5 hPa West 7.0 mph /  11.3 km/h 11.0 mph /  17.7 km/h 74 % 0.00 in /  0 mm 494 W/m2
09:56 52.7 °F /  11.5 °C 44.6 °F /  7 °C 30.11 in /  1019.5 hPa West 6.0 mph /  9.7 km/h 11.0 mph /  17.7 km/h 74 % 0.00 in /  0 mm 508 W/m2
10:01 52.9 °F /  11.6 °C 44.8 °F /  7.1 °C 30.11 in /  1019.5 hPa WSW 6.0 mph /  9.7 km/h 16.0 mph /  25.7 km/h 74 % 0.00 in /  0 mm 489 W/m2
10:06 52.9 °F /  11.6 °C 44.5 °F /  6.9 °C 30.10 in /  1019.2 hPa West 8.0 mph /  12.9 km/h 16.0 mph /  25.7 km/h 73 % 0.00 in /  0 mm 513 W/m2
10:11 53.1 °F /  11.7 °C 44.6 °F /  7 °C 30.11 in /  1019.5 hPa West 9.0 mph /  14.5 km/h 16.0 mph /  25.7 km/h 73 % 0.00 in /  0 mm 529 W/m2
10:16 53.6 °F /  12 °C 44.8 °F /  7.1 °C 30.10 in /  1019.2 hPa WNW 8.0 mph /  12.9 km/h 13.0 mph /  20.9 km/h 72 % 0.00 in /  0 mm 427 W/m2
10:21 54.1 °F /  12.3 °C 45.3 °F /  7.4 °C 30.10 in /  1019.2 hPa WNW 7.0 mph /  11.3 km/h 13.0 mph /  20.9 km/h 72 % 0.00 in /  0 mm 526 W/m2
10:26 54.7 °F /  12.6 °C 45.1 °F /  7.3 °C 30.11 in /  1019.5 hPa WNW 7.0 mph /  11.3 km/h 15.0 mph /  24.1 km/h 70 % 0.00 in /  0 mm 524 W/m2
10:31 54.9 °F /  12.7 °C 45.3 °F /  7.4 °C 30.10 in /  1019.2 hPa West 8.0 mph /  12.9 km/h 15.0 mph /  24.1 km/h 70 % 0.00 in /  0 mm 584 W/m2
10:36 55.0 °F /  12.8 °C 45.4 °F /  7.4 °C 30.10 in /  1019.2 hPa West 8.0 mph /  12.9 km/h 14.0 mph /  22.5 km/h 70 % 0.00 in /  0 mm 612 W/m2
10:41 54.9 °F /  12.7 °C 44.5 °F /  6.9 °C 30.10 in /  1019.2 hPa WSW 9.0 mph /  14.5 km/h 16.0 mph /  25.7 km/h 68 % 0.00 in /  0 mm 624 W/m2
10:46 54.7 °F /  12.6 °C 45.1 °F /  7.3 °C 30.10 in /  1019.2 hPa WSW 11.0 mph /  17.7 km/h 16.0 mph /  25.7 km/h 70 % 0.00 in /  0 mm 666 W/m2
10:51 54.7 °F /  12.6 °C 44.7 °F /  7.1 °C 30.10 in /  1019.2 hPa WSW 13.0 mph /  20.9 km/h 23.0 mph /  37 km/h 69 % 0.00 in /  0 mm 800 W/m2
10:56 54.7 °F /  12.6 °C 44.7 °F /  7.1 °C 30.10 in /  1019.2 hPa West 14.0 mph /  22.5 km/h 23.0 mph /  37 km/h 69 % 0.00 in /  0 mm 751 W/m2
11:01 55.0 °F /  12.8 °C 45.1 °F /  7.3 °C 30.09 in /  1018.8 hPa West 12.0 mph /  19.3 km/h 22.0 mph /  35.4 km/h 69 % 0.00 in /  0 mm 429 W/m2
11:06 55.2 °F /  12.9 °C 44.8 °F /  7.1 °C 30.10 in /  1019.2 hPa West 11.0 mph /  17.7 km/h 19.0 mph /  30.6 km/h 68 % 0.00 in /  0 mm 429 W/m2
11:11 55.0 °F /  12.8 °C 44.7 °F /  7.1 °C 30.09 in /  1018.8 hPa WSW 12.0 mph /  19.3 km/h 22.0 mph /  35.4 km/h 68 % 0.00 in /  0 mm 824 W/m2
11:16 54.9 °F /  12.7 °C 44.5 °F /  6.9 °C 30.09 in /  1018.8 hPa WSW 12.0 mph /  19.3 km/h 22.0 mph /  35.4 km/h 68 % 0.00 in /  0 mm 366 W/m2
11:21 54.7 °F /  12.6 °C 44.3 °F /  6.8 °C 30.09 in /  1018.8 hPa WSW 11.0 mph /  17.7 km/h 20.0 mph /  32.2 km/h 68 % 0.00 in /  0 mm 290 W/m2
11:26 54.3 °F /  12.4 °C 44.4 °F /  6.9 °C 30.09 in /  1018.8 hPa WSW 10.0 mph /  16.1 km/h 19.0 mph /  30.6 km/h 69 % 0.00 in /  0 mm 163 W/m2
11:31 54.3 °F /  12.4 °C 44.4 °F /  6.9 °C 30.09 in /  1018.8 hPa WSW 9.0 mph /  14.5 km/h 18.0 mph /  29 km/h 69 % 0.00 in /  0 mm 165 W/m2
11:36 54.0 °F /  12.2 °C 44.4 °F /  6.9 °C 30.09 in /  1018.8 hPa West 10.0 mph /  16.1 km/h 22.0 mph /  35.4 km/h 70 % 0.00 in /  0 mm 183 W/m2
11:41 53.8 °F /  12.1 °C 44.2 °F /  6.8 °C 30.08 in /  1018.5 hPa West 9.0 mph /  14.5 km/h 22.0 mph /  35.4 km/h 70 % 0.00 in /  0 mm 165 W/m2
11:46 53.4 °F /  11.9 °C 43.9 °F /  6.6 °C 30.08 in /  1018.5 hPa West 9.0 mph /  14.5 km/h 18.0 mph /  29 km/h 70 % 0.00 in /  0 mm 162 W/m2
11:51 53.4 °F /  11.9 °C 43.9 °F /  6.6 °C 30.07 in /  1018.2 hPa West 10.0 mph /  16.1 km/h 21.0 mph /  33.8 km/h 70 % 0.00 in /  0 mm 158 W/m2
11:56 53.4 °F /  11.9 °C 43.9 °F /  6.6 °C 30.07 in /  1018.2 hPa West 10.0 mph /  16.1 km/h 21.0 mph /  33.8 km/h 70 % 0.00 in /  0 mm 206 W/m2
12:01 53.6 °F /  12 °C 44.4 °F /  6.9 °C 30.07 in /  1018.2 hPa West 11.0 mph /  17.7 km/h 19.0 mph /  30.6 km/h 71 % 0.00 in /  0 mm 223 W/m2
12:06 53.8 °F /  12.1 °C 44.6 °F /  7 °C 30.07 in /  1018.2 hPa West 11.0 mph /  17.7 km/h 19.0 mph /  30.6 km/h 71 % 0.00 in /  0 mm 274 W/m2
12:07 53.8 °F /  12.1 °C 44.6 °F /  7 °C 30.07 in /  1018.2 hPa West 11.0 mph /  17.7 km/h 19.0 mph /  30.6 km/h 71 % 0.00 in /  0 mm 221 W/m2
12:12 53.8 °F /  12.1 °C 44.2 °F /  6.8 °C 30.07 in /  1018.2 hPa West 10.0 mph /  16.1 km/h 18.0 mph /  29 km/h 70 % 0.00 in /  0 mm 213 W/m2
12:17 54.0 °F /  12.2 °C 44.4 °F /  6.9 °C 30.07 in /  1018.2 hPa West 12.0 mph /  19.3 km/h 26.0 mph /  41.8 km/h 70 % 0.00 in /  0 mm 190 W/m2
12:22 53.6 °F /  12 °C 44.0 °F /  6.7 °C 30.07 in /  1018.2 hPa West 14.0 mph /  22.5 km/h 26.0 mph /  41.8 km/h 70 % 0.00 in /  0 mm 176 W/m2
12:27 53.4 °F /  11.9 °C 44.2 °F /  6.8 °C 30.07 in /  1018.2 hPa West 13.0 mph /  20.9 km/h 21.0 mph /  33.8 km/h 71 % 0.00 in /  0 mm 158 W/m2
12:32 53.4 °F /  11.9 °C 44.2 °F /  6.8 °C 30.07 in /  1018.2 hPa West 13.0 mph /  20.9 km/h 24.0 mph /  38.6 km/h 71 % 0.00 in /  0 mm 160 W/m2
12:37 53.4 °F /  11.9 °C 43.9 °F /  6.6 °C 30.06 in /  1017.8 hPa West 13.0 mph /  20.9 km/h 24.0 mph /  38.6 km/h 70 % 0.00 in /  0 mm 237 W/m2
12:42 53.4 °F /  11.9 °C 44.2 °F /  6.8 °C 30.06 in /  1017.8 hPa West 12.0 mph /  19.3 km/h 23.0 mph /  37 km/h 71 % 0.00 in /  0 mm 188 W/m2
12:47 53.4 °F /  11.9 °C 44.2 °F /  6.8 °C 30.06 in /  1017.8 hPa WSW 11.0 mph /  17.7 km/h 21.0 mph /  33.8 km/h 71 % 0.00 in /  0 mm 149 W/m2
12:52 53.2 °F /  11.8 °C 44.4 °F /  6.9 °C 30.06 in /  1017.8 hPa West 11.0 mph /  17.7 km/h 21.0 mph /  33.8 km/h 72 % 0.00 in /  0 mm 116 W/m2
12:57 53.2 °F /  11.8 °C 44.4 °F /  6.9 °C 30.06 in /  1017.8 hPa WSW 13.0 mph /  20.9 km/h 24.0 mph /  38.6 km/h 72 % 0.00 in /  0 mm 111 W/m2
13:02 52.9 °F /  11.6 °C 44.5 °F /  6.9 °C 30.05 in /  1017.5 hPa WSW 13.0 mph /  20.9 km/h 24.0 mph /  38.6 km/h 73 % 0.00 in /  0 mm 91 W/m2
13:07 52.9 °F /  11.6 °C 44.8 °F /  7.1 °C 30.04 in /  1017.2 hPa West 11.0 mph /  17.7 km/h 20.0 mph /  32.2 km/h 74 % 0.00 in /  0 mm 104 W/m2
13:12 52.9 °F /  11.6 °C 45.2 °F /  7.3 °C 30.04 in /  1017.2 hPa WSW 11.0 mph /  17.7 km/h 20.0 mph /  32.2 km/h 75 % 0.00 in /  0 mm 332 W/m2
13:17 53.1 °F /  11.7 °C 45.3 °F /  7.4 °C 30.04 in /  1017.2 hPa SW 10.0 mph /  16.1 km/h 19.0 mph /  30.6 km/h 75 % 0.00 in /  0 mm 322 W/m2
13:22 53.6 °F /  12 °C 45.5 °F /  7.5 °C 30.04 in /  1017.2 hPa WSW 10.0 mph /  16.1 km/h 21.0 mph /  33.8 km/h 74 % 0.00 in /  0 mm 202 W/m2
13:27 53.8 °F /  12.1 °C 45.3 °F /  7.4 °C 30.04 in /  1017.2 hPa WSW 12.0 mph /  19.3 km/h 21.0 mph /  33.8 km/h 73 % 0.00 in /  0 mm 162 W/m2
13:32 54.0 °F /  12.2 °C 45.5 °F /  7.5 °C 30.04 in /  1017.2 hPa WSW 11.0 mph /  17.7 km/h 21.0 mph /  33.8 km/h 73 % 0.00 in /  0 mm 153 W/m2
13:37 54.0 °F /  12.2 °C 45.5 °F /  7.5 °C 30.03 in /  1016.8 hPa WSW 10.0 mph /  16.1 km/h 23.0 mph /  37 km/h 73 % 0.00 in /  0 mm 148 W/m2
13:42 53.8 °F /  12.1 °C 45.3 °F /  7.4 °C 30.03 in /  1016.8 hPa WSW 11.0 mph /  17.7 km/h 23.0 mph /  37 km/h 73 % 0.00 in /  0 mm 118 W/m2
13:47 53.6 °F /  12 °C 45.5 °F /  7.5 °C 30.03 in /  1016.8 hPa West 11.0 mph /  17.7 km/h 19.0 mph /  30.6 km/h 74 % 0.00 in /  0 mm 146 W/m2
13:52 53.2 °F /  11.8 °C 45.5 °F /  7.5 °C 30.03 in /  1016.8 hPa West 11.0 mph /  17.7 km/h 21.0 mph /  33.8 km/h 75 % 0.00 in /  0 mm 223 W/m2
13:57 53.4 °F /  11.9 °C 45.7 °F /  7.6 °C 30.03 in /  1016.8 hPa West 12.0 mph /  19.3 km/h 21.0 mph /  33.8 km/h 75 % 0.00 in /  0 mm 751 W/m2
14:02 53.8 °F /  12.1 °C 45.7 °F /  7.6 °C 30.03 in /  1016.8 hPa West 12.0 mph /  19.3 km/h 20.0 mph /  32.2 km/h 74 % 0.00 in /  0 mm 626 W/m2
14:07 54.1 °F /  12.3 °C 46.0 °F /  7.8 °C 30.02 in /  1016.5 hPa West 11.0 mph /  17.7 km/h 20.0 mph /  32.2 km/h 74 % 0.00 in /  0 mm 552 W/m2
14:12 54.3 °F /  12.4 °C 45.8 °F /  7.7 °C 30.02 in /  1016.5 hPa West 11.0 mph /  17.7 km/h 21.0 mph /  33.8 km/h 73 % 0.00 in /  0 mm 545 W/m2
14:17 54.9 °F /  12.7 °C 46.0 °F /  7.8 °C 30.02 in /  1016.5 hPa West 12.0 mph /  19.3 km/h 21.0 mph /  33.8 km/h 72 % 0.00 in /  0 mm 548 W/m2
14:22 54.9 °F /  12.7 °C 46.0 °F /  7.8 °C 30.02 in /  1016.5 hPa West 13.0 mph /  20.9 km/h 20.0 mph /  32.2 km/h 72 % 0.00 in /  0 mm 527 W/m2
14:27 55.0 °F /  12.8 °C 45.8 °F /  7.7 °C 30.02 in /  1016.5 hPa WSW 13.0 mph /  20.9 km/h 20.0 mph /  32.2 km/h 71 % 0.00 in /  0 mm 557 W/m2
14:32 55.0 °F /  12.8 °C 45.8 °F /  7.7 °C 30.01 in /  1016.1 hPa WSW 12.0 mph /  19.3 km/h 20.0 mph /  32.2 km/h 71 % 0.00 in /  0 mm 185 W/m2
14:37 55.0 °F /  12.8 °C 45.4 °F /  7.4 °C 30.01 in /  1016.1 hPa WSW 12.0 mph /  19.3 km/h 19.0 mph /  30.6 km/h 70 % 0.00 in /  0 mm 380 W/m2
14:42 54.9 °F /  12.7 °C 45.3 °F /  7.4 °C 30.01 in /  1016.1 hPa WSW 12.0 mph /  19.3 km/h 21.0 mph /  33.8 km/h 70 % 0.00 in /  0 mm 220 W/m2
14:47 55.0 °F /  12.8 °C 45.8 °F /  7.7 °C 30.01 in /  1016.1 hPa West 11.0 mph /  17.7 km/h 21.0 mph /  33.8 km/h 71 % 0.00 in /  0 mm 137 W/m2
14:52 55.0 °F /  12.8 °C 45.1 °F /  7.3 °C 30.01 in /  1016.1 hPa West 13.0 mph /  20.9 km/h 24.0 mph /  38.6 km/h 69 % 0.00 in /  0 mm 192 W/m2
14:57 54.7 °F /  12.6 °C 45.1 °F /  7.3 °C 30.01 in /  1016.1 hPa West 13.0 mph /  20.9 km/h 24.0 mph /  38.6 km/h 70 % 0.00 in /  0 mm 192 W/m2
15:02 54.7 °F /  12.6 °C 45.1 °F /  7.3 °C 30.01 in /  1016.1 hPa WSW 12.0 mph /  19.3 km/h 21.0 mph /  33.8 km/h 70 % 0.00 in /  0 mm 109 W/m2
15:07 54.3 °F /  12.4 °C 44.7 °F /  7.1 °C 30.01 in /  1016.1 hPa WSW 13.0 mph /  20.9 km/h 20.0 mph /  32.2 km/h 70 % 0.00 in /  0 mm 123 W/m2
15:12 54.1 °F /  12.3 °C 44.9 °F /  7.2 °C 30.01 in /  1016.1 hPa WSW 11.0 mph /  17.7 km/h 20.0 mph /  32.2 km/h 71 % 0.00 in /  0 mm 100 W/m2
15:17 54.1 °F /  12.3 °C 44.9 °F /  7.2 °C 30.01 in /  1016.1 hPa West 8.0 mph /  12.9 km/h 18.0 mph /  29 km/h 71 % 0.00 in /  0 mm 102 W/m2
15:22 54.1 °F /  12.3 °C 44.6 °F /  7 °C 30.00 in /  1015.8 hPa WSW 9.0 mph /  14.5 km/h 19.0 mph /  30.6 km/h 70 % 0.00 in /  0 mm 104 W/m2
15:27 54.1 °F /  12.3 °C 44.6 °F /  7 °C 30.00 in /  1015.8 hPa WSW 11.0 mph /  17.7 km/h 19.0 mph /  30.6 km/h 70 % 0.00 in /  0 mm 97 W/m2
15:32 54.1 °F /  12.3 °C 44.2 °F /  6.8 °C 30.00 in /  1015.8 hPa WSW 11.0 mph /  17.7 km/h 20.0 mph /  32.2 km/h 69 % 0.00 in /  0 mm 74 W/m2
15:37 54.1 °F /  12.3 °C 44.2 °F /  6.8 °C 30.00 in /  1015.8 hPa WSW 10.0 mph /  16.1 km/h 20.0 mph /  32.2 km/h 69 % 0.00 in /  0 mm 51 W/m2
15:42 54.0 °F /  12.2 °C 44.4 °F /  6.9 °C 30.00 in /  1015.8 hPa WSW 10.0 mph /  16.1 km/h 18.0 mph /  29 km/h 70 % 0.00 in /  0 mm 54 W/m2
15:47 53.8 °F /  12.1 °C 44.2 °F /  6.8 °C 30.00 in /  1015.8 hPa WSW 9.0 mph /  14.5 km/h 14.0 mph /  22.5 km/h 70 % 0.00 in /  0 mm 58 W/m2
15:52 53.8 °F /  12.1 °C 44.2 °F /  6.8 °C 30.00 in /  1015.8 hPa WSW 9.0 mph /  14.5 km/h 15.0 mph /  24.1 km/h 70 % 0.00 in /  0 mm 56 W/m2
15:58 53.8 °F /  12.1 °C 44.6 °F /  7 °C 30.00 in /  1015.8 hPa WSW 9.0 mph /  14.5 km/h 15.0 mph /  24.1 km/h 71 % 0.00 in /  0 mm 46 W/m2
16:03 53.4 °F /  11.9 °C 44.2 °F /  6.8 °C 30.00 in /  1015.8 hPa WSW 9.0 mph /  14.5 km/h 15.0 mph /  24.1 km/h 71 % 0.00 in /  0 mm 39 W/m2
16:08 53.4 °F /  11.9 °C 44.2 °F /  6.8 °C 30.00 in /  1015.8 hPa WSW 10.0 mph /  16.1 km/h 15.0 mph /  24.1 km/h 71 % 0.00 in /  0 mm 51 W/m2
16:13 53.4 °F /  11.9 °C 44.6 °F /  7 °C 30.00 in /  1015.8 hPa WSW 9.0 mph /  14.5 km/h 15.0 mph /  24.1 km/h 72 % 0.00 in /  0 mm 76 W/m2
16:18 53.4 °F /  11.9 °C 44.6 °F /  7 °C 29.99 in /  1015.5 hPa WSW 7.0 mph /  11.3 km/h 13.0 mph /  20.9 km/h 72 % 0.00 in /  0 mm 47 W/m2
16:23 53.4 °F /  11.9 °C 44.6 °F /  7 °C 29.99 in /  1015.5 hPa WSW 7.0 mph /  11.3 km/h 13.0 mph /  20.9 km/h 72 % 0.00 in /  0 mm 76 W/m2
16:28 53.4 °F /  11.9 °C 44.2 °F /  6.8 °C 29.98 in /  1015.1 hPa WSW 9.0 mph /  14.5 km/h 18.0 mph /  29 km/h 71 % 0.00 in /  0 mm 223 W/m2
16:33 53.8 °F /  12.1 °C 44.6 °F /  7 °C 29.98 in /  1015.1 hPa WSW 10.0 mph /  16.1 km/h 18.0 mph /  29 km/h 71 % 0.00 in /  0 mm 225 W/m2
16:38 53.8 °F /  12.1 °C 44.2 °F /  6.8 °C 29.98 in /  1015.1 hPa WSW 11.0 mph /  17.7 km/h 24.0 mph /  38.6 km/h 70 % 0.00 in /  0 mm 62 W/m2
16:43 54.0 °F /  12.2 °C 44.4 °F /  6.9 °C 29.98 in /  1015.1 hPa WSW 11.0 mph /  17.7 km/h 24.0 mph /  38.6 km/h 70 % 0.00 in /  0 mm 44 W/m2
16:48 54.0 °F /  12.2 °C 44.4 °F /  6.9 °C 29.98 in /  1015.1 hPa West 11.0 mph /  17.7 km/h 21.0 mph /  33.8 km/h 70 % 0.00 in /  0 mm 151 W/m2
16:53 53.8 °F /  12.1 °C 44.2 °F /  6.8 °C 29.98 in /  1015.1 hPa West 12.0 mph /  19.3 km/h 21.0 mph /  33.8 km/h 70 % 0.00 in /  0 mm 97 W/m2
16:58 53.6 °F /  12 °C 44.0 °F /  6.7 °C 29.98 in /  1015.1 hPa WSW 11.0 mph /  17.7 km/h 20.0 mph /  32.2 km/h 70 % 0.00 in /  0 mm 33 W/m2
17:03 53.2 °F /  11.8 °C 43.7 °F /  6.5 °C 29.98 in /  1015.1 hPa WSW 11.0 mph /  17.7 km/h 19.0 mph /  30.6 km/h 70 % 0.00 in /  0 mm 28 W/m2
17:08 53.2 °F /  11.8 °C 44.1 °F /  6.7 °C 29.98 in /  1015.1 hPa WSW 10.0 mph /  16.1 km/h 19.0 mph /  30.6 km/h 71 % 0.00 in /  0 mm 39 W/m2
17:13 53.1 °F /  11.7 °C 44.3 °F /  6.8 °C 29.98 in /  1015.1 hPa West 10.0 mph /  16.1 km/h 21.0 mph /  33.8 km/h 72 % 0.00 in /  0 mm 26 W/m2
17:18 53.1 °F /  11.7 °C 44.3 °F /  6.8 °C 29.98 in /  1015.1 hPa West 10.0 mph /  16.1 km/h 21.0 mph /  33.8 km/h 72 % 0.00 in /  0 mm 21 W/m2
17:23 53.1 °F /  11.7 °C 44.3 °F /  6.8 °C 29.98 in /  1015.1 hPa WSW 9.0 mph /  14.5 km/h 20.0 mph /  32.2 km/h 72 % 0.00 in /  0 mm 25 W/m2
17:28 53.1 °F /  11.7 °C 44.6 °F /  7 °C 29.98 in /  1015.1 hPa WSW 9.0 mph /  14.5 km/h 16.0 mph /  25.7 km/h 73 % 0.00 in /  0 mm 23 W/m2
17:33 53.1 °F /  11.7 °C 44.6 °F /  7 °C 29.98 in /  1015.1 hPa WSW 10.0 mph /  16.1 km/h 19.0 mph /  30.6 km/h 73 % 0.00 in /  0 mm 19 W/m2
17:38 53.1 °F /  11.7 °C 44.6 °F /  7 °C 29.98 in /  1015.1 hPa WSW 12.0 mph /  19.3 km/h 19.0 mph /  30.6 km/h 73 % 0.00 in /  0 mm 19 W/m2
17:43 52.9 °F /  11.6 °C 44.5 °F /  6.9 °C 29.98 in /  1015.1 hPa WSW 13.0 mph /  20.9 km/h 22.0 mph /  35.4 km/h 73 % 0.00 in /  0 mm 12 W/m2
17:48 52.5 °F /  11.4 °C 44.5 °F /  6.9 °C 29.99 in /  1015.5 hPa WSW 16.0 mph /  25.7 km/h 26.0 mph /  41.8 km/h 74 % 0.00 in /  0 mm 11 W/m2
17:53 52.2 °F /  11.2 °C 44.5 °F /  6.9 °C 29.99 in /  1015.5 hPa WSW 15.0 mph /  24.1 km/h 26.0 mph /  41.8 km/h 75 % 0.00 in /  0 mm 9 W/m2
17:58 52.0 °F /  11.1 °C 44.6 °F /  7 °C 29.99 in /  1015.5 hPa West 12.0 mph /  19.3 km/h 23.0 mph /  37 km/h 76 % 0.00 in /  0 mm 5 W/m2
18:03 51.6 °F /  10.9 °C 44.6 °F /  7 °C 29.99 in /  1015.5 hPa West 11.0 mph /  17.7 km/h 20.0 mph /  32.2 km/h 77 % 0.00 in /  0 mm 0 W/m2
18:08 51.4 °F /  10.8 °C 44.5 °F /  6.9 °C 29.99 in /  1015.5 hPa West 12.0 mph /  19.3 km/h 23.0 mph /  37 km/h 77 % 0.00 in /  0 mm 0 W/m2
18:13 51.3 °F /  10.7 °C 44.3 °F /  6.8 °C 29.99 in /  1015.5 hPa West 12.0 mph /  19.3 km/h 23.0 mph /  37 km/h 77 % 0.00 in /  0 mm 0 W/m2
18:18 51.1 °F /  10.6 °C 44.5 °F /  6.9 °C 29.99 in /  1015.5 hPa West 11.0 mph /  17.7 km/h 21.0 mph /  33.8 km/h 78 % 0.00 in /  0 mm 0 W/m2
18:23 50.9 °F /  10.5 °C 44.6 °F /  7 °C 30.00 in /  1015.8 hPa West 12.0 mph /  19.3 km/h 22.0 mph /  35.4 km/h 79 % 0.00 in /  0 mm 0 W/m2
18:28 50.7 °F /  10.4 °C 44.8 °F /  7.1 °C 30.00 in /  1015.8 hPa West 15.0 mph /  24.1 km/h 26.0 mph /  41.8 km/h 80 % 0.00 in /  0 mm 0 W/m2
18:33 50.5 °F /  10.3 °C 44.9 °F /  7.2 °C 29.99 in /  1015.5 hPa West 14.0 mph /  22.5 km/h 26.0 mph /  41.8 km/h 81 % 0.00 in /  0 mm 0 W/m2
18:38 50.4 °F /  10.2 °C 44.7 °F /  7.1 °C 30.00 in /  1015.8 hPa West 12.0 mph /  19.3 km/h 22.0 mph /  35.4 km/h 81 % 0.00 in /  0 mm 0 W/m2
18:43 50.0 °F /  10 °C 45.0 °F /  7.2 °C 30.01 in /  1016.1 hPa West 14.0 mph /  22.5 km/h 28.0 mph /  45.1 km/h 83 % 0.00 in /  0 mm 0 W/m2
18:48 48.4 °F /  9.1 °C 43.1 °F /  6.2 °C 30.01 in /  1016.1 hPa WNW 15.0 mph /  24.1 km/h 29.0 mph /  46.7 km/h 82 % 0.00 in /  0 mm 0 W/m2
18:53 47.1 °F /  8.4 °C 42.5 °F /  5.8 °C 30.02 in /  1016.5 hPa WNW 13.0 mph /  20.9 km/h 29.0 mph /  46.7 km/h 84 % 0.00 in /  0 mm 0 W/m2
18:58 46.2 °F /  7.9 °C 42.0 °F /  5.6 °C 30.02 in /  1016.5 hPa WNW 14.0 mph /  22.5 km/h 26.0 mph /  41.8 km/h 85 % 0.00 in /  0 mm 0 W/m2
19:03 45.7 °F /  7.6 °C 41.4 °F /  5.2 °C 30.02 in /  1016.5 hPa WNW 14.0 mph /  22.5 km/h 26.0 mph /  41.8 km/h 85 % 0.00 in /  0 mm 0 W/m2
19:08 45.3 °F /  7.4 °C 41.4 °F /  5.2 °C 30.02 in /  1016.5 hPa WNW 12.0 mph /  19.3 km/h 21.0 mph /  33.8 km/h 86 % 0.00 in /  0 mm 0 W/m2
19:14 45.1 °F /  7.3 °C 41.2 °F /  5.1 °C 30.02 in /  1016.5 hPa WNW 11.0 mph /  17.7 km/h 19.0 mph /  30.6 km/h 86 % 0.00 in /  0 mm 0 W/m2
19:19 45.1 °F /  7.3 °C 41.2 °F /  5.1 °C 30.02 in /  1016.5 hPa WNW 10.0 mph /  16.1 km/h 19.0 mph /  30.6 km/h 86 % 0.00 in /  0 mm 0 W/m2
19:24 45.0 °F /  7.2 °C 41.0 °F /  5 °C 30.02 in /  1016.5 hPa WNW 11.0 mph /  17.7 km/h 19.0 mph /  30.6 km/h 86 % 0.00 in /  0 mm 0 W/m2
19:29 45.0 °F /  7.2 °C 40.7 °F /  4.8 °C 30.02 in /  1016.5 hPa WNW 12.0 mph /  19.3 km/h 22.0 mph /  35.4 km/h 85 % 0.00 in /  0 mm 0 W/m2
19:34 44.8 °F /  7.1 °C 40.5 °F /  4.7 °C 30.02 in /  1016.5 hPa WNW 11.0 mph /  17.7 km/h 22.0 mph /  35.4 km/h 85 % 0.00 in /  0 mm 0 W/m2
19:39 44.6 °F /  7 °C 40.1 °F /  4.5 °C 30.02 in /  1016.5 hPa WNW 10.0 mph /  16.1 km/h 19.0 mph /  30.6 km/h 84 % 0.00 in /  0 mm 0 W/m2
19:44 44.4 °F /  6.9 °C 39.9 °F /  4.4 °C 30.02 in /  1016.5 hPa WNW 9.0 mph /  14.5 km/h 16.0 mph /  25.7 km/h 84 % 0.00 in /  0 mm 0 W/m2
19:49 44.2 °F /  6.8 °C 39.7 °F /  4.3 °C 30.02 in /  1016.5 hPa WNW 8.0 mph /  12.9 km/h 14.0 mph /  22.5 km/h 84 % 0.00 in /  0 mm 0 W/m2
19:54 44.2 °F /  6.8 °C 39.7 °F /  4.3 °C 30.03 in /  1016.8 hPa WNW 8.0 mph /  12.9 km/h 14.0 mph /  22.5 km/h 84 % 0.00 in /  0 mm 0 W/m2
19:59 44.2 °F /  6.8 °C 39.7 °F /  4.3 °C 30.03 in /  1016.8 hPa WNW 8.0 mph /  12.9 km/h 15.0 mph /  24.1 km/h 84 % 0.00 in /  0 mm 0 W/m2
20:04 44.2 °F /  6.8 °C 39.4 °F /  4.1 °C 30.03 in /  1016.8 hPa NW 8.0 mph /  12.9 km/h 15.0 mph /  24.1 km/h 83 % 0.00 in /  0 mm 0 W/m2
20:09 44.2 °F /  6.8 °C 39.7 °F /  4.3 °C 30.03 in /  1016.8 hPa NW 7.0 mph /  11.3 km/h 15.0 mph /  24.1 km/h 84 % 0.00 in /  0 mm 0 W/m2
20:14 44.2 °F /  6.8 °C 39.7 °F /  4.3 °C 30.03 in /  1016.8 hPa NW 6.0 mph /  9.7 km/h 12.0 mph /  19.3 km/h 84 % 0.00 in /  0 mm 0 W/m2
20:19 44.2 °F /  6.8 °C 39.7 °F /  4.3 °C 30.04 in /  1017.2 hPa NW 5.0 mph /  8 km/h 11.0 mph /  17.7 km/h 84 % 0.00 in /  0 mm 0 W/m2
20:24 44.2 °F /  6.8 °C 39.7 °F /  4.3 °C 30.04 in /  1017.2 hPa NW 5.0 mph /  8 km/h 11.0 mph /  17.7 km/h 84 % 0.00 in /  0 mm 0 W/m2
20:29 44.2 °F /  6.8 °C 39.7 °F /  4.3 °C 30.04 in /  1017.2 hPa NW 5.0 mph /  8 km/h 8.0 mph /  12.9 km/h 84 % 0.00 in /  0 mm 0 W/m2
20:34 44.2 °F /  6.8 °C 40.0 °F /  4.4 °C 30.04 in /  1017.2 hPa NW 5.0 mph /  8 km/h 9.0 mph /  14.5 km/h 85 % 0.00 in /  0 mm 0 W/m2
20:39 44.4 °F /  6.9 °C 40.2 °F /  4.6 °C 30.04 in /  1017.2 hPa NW 4.0 mph /  6.4 km/h 9.0 mph /  14.5 km/h 85 % 0.00 in /  0 mm 0 W/m2
20:44 44.2 °F /  6.8 °C 40.0 °F /  4.4 °C 30.04 in /  1017.2 hPa WNW 4.0 mph /  6.4 km/h 8.0 mph /  12.9 km/h 85 % 0.00 in /  0 mm 0 W/m2
20:49 44.2 °F /  6.8 °C 40.0 °F /  4.4 °C 30.04 in /  1017.2 hPa WNW 5.0 mph /  8 km/h 8.0 mph /  12.9 km/h 85 % 0.00 in /  0 mm 0 W/m2
20:54 44.2 °F /  6.8 °C 40.0 °F /  4.4 °C 30.04 in /  1017.2 hPa WNW 6.0 mph /  9.7 km/h 10.0 mph /  16.1 km/h 85 % 0.00 in /  0 mm 0 W/m2
20:59 44.2 °F /  6.8 °C 40.0 °F /  4.4 °C 30.04 in /  1017.2 hPa WNW 6.0 mph /  9.7 km/h 10.0 mph /  16.1 km/h 85 % 0.00 in /  0 mm 0 W/m2
21:04 44.4 °F /  6.9 °C 40.2 °F /  4.6 °C 30.04 in /  1017.2 hPa WNW 7.0 mph /  11.3 km/h 12.0 mph /  19.3 km/h 85 % 0.00 in /  0 mm 0 W/m2
21:09 44.4 °F /  6.9 °C 40.5 °F /  4.7 °C 30.04 in /  1017.2 hPa WNW 9.0 mph /  14.5 km/h 16.0 mph /  25.7 km/h 86 % 0.00 in /  0 mm 0 W/m2
21:14 44.2 °F /  6.8 °C 40.3 °F /  4.6 °C 30.05 in /  1017.5 hPa WNW 9.0 mph /  14.5 km/h 16.0 mph /  25.7 km/h 86 % 0.00 in /  0 mm 0 W/m2
21:19 44.1 °F /  6.7 °C 39.8 °F /  4.3 °C 30.05 in /  1017.5 hPa WNW 9.0 mph /  14.5 km/h 18.0 mph /  29 km/h 85 % 0.00 in /  0 mm 0 W/m2
21:24 43.9 °F /  6.6 °C 39.7 °F /  4.3 °C 30.05 in /  1017.5 hPa WNW 8.0 mph /  12.9 km/h 18.0 mph /  29 km/h 85 % 0.00 in /  0 mm 0 W/m2
21:29 43.7 °F /  6.5 °C 39.2 °F /  4 °C 30.05 in /  1017.5 hPa WNW 8.0 mph /  12.9 km/h 15.0 mph /  24.1 km/h 84 % 0.00 in /  0 mm 0 W/m2
21:34 43.5 °F /  6.4 °C 39.3 °F /  4.1 °C 30.05 in /  1017.5 hPa WNW 7.0 mph /  11.3 km/h 14.0 mph /  22.5 km/h 85 % 0.00 in /  0 mm 0 W/m2
21:39 43.3 °F /  6.3 °C 39.1 °F /  3.9 °C 30.05 in /  1017.5 hPa WNW 5.0 mph /  8 km/h 11.0 mph /  17.7 km/h 85 % 0.00 in /  0 mm 0 W/m2
21:44 43.3 °F /  6.3 °C 39.1 °F /  3.9 °C 30.06 in /  1017.8 hPa WNW 6.0 mph /  9.7 km/h 11.0 mph /  17.7 km/h 85 % 0.00 in /  0 mm 0 W/m2
21:49 43.3 °F /  6.3 °C 39.1 °F /  3.9 °C 30.06 in /  1017.8 hPa WNW 6.0 mph /  9.7 km/h 11.0 mph /  17.7 km/h 85 % 0.00 in /  0 mm 0 W/m2
21:54 43.2 °F /  6.2 °C 39.3 °F /  4.1 °C 30.06 in /  1017.8 hPa WNW 5.0 mph /  8 km/h 10.0 mph /  16.1 km/h 86 % 0.00 in /  0 mm 0 W/m2
21:59 43.0 °F /  6.1 °C 38.8 °F /  3.8 °C 30.06 in /  1017.8 hPa WNW 4.0 mph /  6.4 km/h 11.0 mph /  17.7 km/h 85 % 0.00 in /  0 mm 0 W/m2
22:04 42.6 °F /  5.9 °C 38.4 °F /  3.6 °C 30.06 in /  1017.8 hPa WNW 5.0 mph /  8 km/h 11.0 mph /  17.7 km/h 85 % 0.00 in /  0 mm 0 W/m2
22:09 42.4 °F /  5.8 °C 38.2 °F /  3.4 °C 30.05 in /  1017.5 hPa WNW 5.0 mph /  8 km/h 9.0 mph /  14.5 km/h 85 % 0.00 in /  0 mm 0 W/m2
22:14 42.3 °F /  5.7 °C 38.4 °F /  3.6 °C 30.06 in /  1017.8 hPa WNW 5.0 mph /  8 km/h 10.0 mph /  16.1 km/h 86 % 0.00 in /  0 mm 0 W/m2
22:19 42.1 °F /  5.6 °C 38.2 °F /  3.4 °C 30.05 in /  1017.5 hPa WNW 5.0 mph /  8 km/h 11.0 mph /  17.7 km/h 86 % 0.00 in /  0 mm 0 W/m2
22:25 41.9 °F /  5.5 °C 38.0 °F /  3.3 °C 30.05 in /  1017.5 hPa WNW 5.0 mph /  8 km/h 11.0 mph /  17.7 km/h 86 % 0.00 in /  0 mm 0 W/m2
22:30 41.7 °F /  5.4 °C 37.8 °F /  3.2 °C 30.06 in /  1017.8 hPa WNW 4.0 mph /  6.4 km/h 9.0 mph /  14.5 km/h 86 % 0.00 in /  0 mm 0 W/m2
22:35 41.5 °F /  5.3 °C 37.7 °F /  3.2 °C 30.06 in /  1017.8 hPa WNW 3.0 mph /  4.8 km/h 6.0 mph /  9.7 km/h 86 % 0.00 in /  0 mm 0 W/m2
22:40 41.4 °F /  5.2 °C 37.5 °F /  3.1 °C 30.05 in /  1017.5 hPa WNW 1.0 mph /  1.6 km/h 5.0 mph /  8 km/h 86 % 0.00 in /  0 mm 0 W/m2
22:45 41.2 °F /  5.1 °C 37.3 °F /  2.9 °C 30.05 in /  1017.5 hPa Calm   4.0 mph /  6.4 km/h 86 % 0.00 in /  0 mm 0 W/m2
22:50 40.8 °F /  4.9 °C 37.3 °F /  2.9 °C 30.06 in /  1017.8 hPa Calm   4.0 mph /  6.4 km/h 87 % 0.00 in /  0 mm 0 W/m2
22:55 40.6 °F /  4.8 °C 37.1 °F /  2.8 °C 30.06 in /  1017.8 hPa Calm   1.0 mph /  1.6 km/h 87 % 0.00 in /  0 mm 0 W/m2
23:00 40.3 °F /  4.6 °C 36.7 °F /  2.6 °C 30.06 in /  1017.8 hPa Calm   1.0 mph /  1.6 km/h 87 % 0.00 in /  0 mm 0 W/m2
23:05 39.9 °F /  4.4 °C 36.7 °F /  2.6 °C 30.06 in /  1017.8 hPa Calm     88 % 0.00 in /  0 mm 0 W/m2
23:10 39.7 °F /  4.3 °C 36.5 °F /  2.5 °C 30.06 in /  1017.8 hPa WNW 1.0 mph /  1.6 km/h 5.0 mph /  8 km/h 88 % 0.00 in /  0 mm 0 W/m2
23:15 39.9 °F /  4.4 °C 36.9 °F /  2.7 °C 30.06 in /  1017.8 hPa West 2.0 mph /  3.2 km/h 6.0 mph /  9.7 km/h 89 % 0.00 in /  0 mm 0 W/m2
23:20 39.9 °F /  4.4 °C 36.9 °F /  2.7 °C 30.06 in /  1017.8 hPa West 3.0 mph /  4.8 km/h 12.0 mph /  19.3 km/h 89 % 0.00 in /  0 mm 0 W/m2
23:25 39.9 °F /  4.4 °C 36.9 °F /  2.7 °C 30.06 in /  1017.8 hPa West 6.0 mph /  9.7 km/h 16.0 mph /  25.7 km/h 89 % 0.00 in /  0 mm 0 W/m2
23:30 40.3 °F /  4.6 °C 36.7 °F /  2.6 °C 30.06 in /  1017.8 hPa West 8.0 mph /  12.9 km/h 16.0 mph /  25.7 km/h 87 % 0.00 in /  0 mm 0 W/m2
23:35 40.6 °F /  4.8 °C 36.8 °F /  2.7 °C 30.06 in /  1017.8 hPa West 8.0 mph /  12.9 km/h 16.0 mph /  25.7 km/h 86 % 0.00 in /  0 mm 0 W/m2
23:40 40.6 °F /  4.8 °C 36.5 °F /  2.5 °C 30.06 in /  1017.8 hPa West 9.0 mph /  14.5 km/h 16.0 mph /  25.7 km/h 85 % 0.00 in /  0 mm 0 W/m2
23:45 40.6 °F /  4.8 °C 36.2 °F /  2.3 °C 30.06 in /  1017.8 hPa West 8.0 mph /  12.9 km/h 14.0 mph /  22.5 km/h 84 % 0.00 in /  0 mm 0 W/m2
23:50 40.6 °F /  4.8 °C 35.9 °F /  2.2 °C 30.06 in /  1017.8 hPa West 8.0 mph /  12.9 km/h 15.0 mph /  24.1 km/h 83 % 0.00 in /  0 mm 0 W/m2
23:55 40.6 °F /  4.8 °C 35.6 °F /  2 °C 30.06 in /  1017.8 hPa West 8.0 mph /  12.9 km/h 15.0 mph /  24.1 km/h 82 % 0.00 in /  0 mm 0 W/m2
Delerius-Weather
Compliments of Weather Underground - 2.25 mb

Data updates at regular intervals.